createdAt,value
2018-07-24T00:00:12.653Z,18.84
2018-07-24T00:01:19.129Z,18.87
2018-07-24T00:02:25.416Z,18.91
2018-07-24T00:03:31.483Z,18.85
2018-07-24T00:04:37.836Z,18.78
2018-07-24T00:05:44.762Z,18.85
2018-07-24T00:06:51.154Z,18.88
2018-07-24T00:07:57.657Z,18.96
2018-07-24T00:09:03.051Z,18.98
2018-07-24T00:10:13.509Z,18.95
2018-07-24T00:11:19.344Z,18.98
2018-07-24T00:12:25.684Z,18.94
2018-07-24T00:13:32.059Z,18.90
2018-07-24T00:14:39.288Z,18.86
2018-07-24T00:15:45.107Z,18.74
2018-07-24T00:16:51.794Z,18.76
2018-07-24T00:17:57.884Z,18.76
2018-07-24T00:19:04.150Z,18.74
2018-07-24T00:20:10.612Z,18.66
2018-07-24T00:21:16.706Z,18.65
2018-07-24T00:22:23.001Z,18.63
2018-07-24T00:23:29.449Z,18.62
2018-07-24T00:24:35.891Z,18.62
2018-07-24T00:25:42.267Z,18.61
2018-07-24T00:26:48.493Z,18.66
2018-07-24T00:27:54.554Z,18.71
2018-07-24T00:29:00.688Z,18.70
2018-07-24T00:30:06.616Z,18.70
2018-07-24T00:31:12.685Z,18.70
2018-07-24T00:32:19.016Z,18.61
2018-07-24T00:33:25.291Z,18.50
2018-07-24T00:34:32.680Z,18.54
2018-07-24T00:35:39.208Z,18.49
2018-07-24T00:36:45.389Z,18.50
2018-07-24T00:37:51.820Z,18.42
2018-07-24T00:38:58.099Z,18.41
2018-07-24T00:40:04.142Z,18.47
2018-07-24T00:41:10.232Z,18.41
2018-07-24T00:42:17.446Z,18.46
2018-07-24T00:43:23.749Z,18.47
2018-07-24T00:44:30.189Z,18.39
2018-07-24T00:45:36.566Z,18.33
2018-07-24T00:46:42.731Z,18.33
2018-07-24T00:47:48.989Z,18.27
2018-07-24T00:48:55.140Z,18.32
2018-07-24T00:50:02.138Z,18.14
2018-07-24T00:51:09.283Z,18.13
2018-07-24T00:52:15.677Z,18.21
2018-07-24T00:53:21.622Z,18.13
2018-07-24T00:54:27.988Z,18.14
2018-07-24T00:55:34.373Z,17.98
2018-07-24T00:56:40.354Z,18.06
2018-07-24T00:57:46.752Z,18.06
2018-07-24T00:58:53.052Z,18.13
2018-07-24T00:59:59.399Z,18.07
2018-07-24T01:01:05.677Z,18.05
2018-07-24T01:02:12.022Z,18.12
2018-07-24T01:03:18.006Z,18.15
2018-07-24T01:04:24.077Z,18.15
2018-07-24T01:05:31.368Z,18.13
2018-07-24T01:06:37.700Z,18.08
2018-07-24T01:07:44.072Z,17.99
2018-07-24T01:08:50.350Z,18.02
2018-07-24T01:09:56.676Z,18.01
2018-07-24T01:11:03.004Z,17.97
2018-07-24T01:12:09.324Z,18.01
2018-07-24T01:13:15.604Z,18.00
2018-07-24T01:14:21.916Z,18.00
2018-07-24T01:15:27.935Z,18.02
2018-07-24T01:16:33.974Z,18.00
2018-07-24T01:17:40.274Z,17.94
2018-07-24T01:18:46.642Z,17.90
2018-07-24T01:19:52.990Z,17.94
2018-07-24T01:20:59.068Z,17.93
2018-07-24T01:22:05.536Z,17.98
2018-07-24T01:23:11.991Z,17.95
2018-07-24T01:24:18.546Z,17.85
2018-07-24T01:25:24.656Z,17.85
2018-07-24T01:26:30.976Z,17.93
2018-07-24T01:27:37.007Z,18.00
2018-07-24T01:28:43.360Z,17.91
2018-07-24T01:29:49.796Z,17.84
2018-07-24T01:30:56.093Z,17.79
2018-07-24T01:32:01.873Z,17.74
2018-07-24T01:33:08.351Z,17.77
2018-07-24T01:34:14.516Z,17.79
2018-07-24T01:35:20.921Z,17.80
2018-07-24T01:36:27.372Z,17.76
2018-07-24T01:37:33.774Z,17.77
2018-07-24T01:38:40.106Z,17.72
2018-07-24T01:39:46.404Z,17.70
2018-07-24T01:40:52.858Z,17.70
2018-07-24T01:42:00.043Z,17.71
2018-07-24T01:43:06.449Z,17.74
2018-07-24T01:44:12.854Z,17.78
2018-07-24T01:45:19.176Z,17.79
2018-07-24T01:46:25.265Z,17.80
2018-07-24T01:47:31.587Z,17.76
2018-07-24T01:48:37.893Z,17.76
2018-07-24T01:49:44.202Z,17.67
2018-07-24T01:50:50.185Z,17.70
2018-07-24T01:51:56.570Z,17.74
2018-07-24T01:53:02.865Z,17.77
2018-07-24T01:54:08.833Z,17.67
2018-07-24T01:55:15.289Z,17.57
2018-07-24T01:56:21.595Z,17.60
2018-07-24T01:57:28.752Z,17.63
2018-07-24T01:58:35.140Z,17.66
2018-07-24T01:59:41.461Z,17.65
2018-07-24T02:00:47.832Z,17.64
2018-07-24T02:01:53.998Z,17.67
2018-07-24T02:03:00.284Z,17.66
2018-07-24T02:04:06.260Z,17.60
2018-07-24T02:05:12.339Z,17.62
2018-07-24T02:06:18.634Z,17.55
2018-07-24T02:07:24.880Z,17.36
2018-07-24T02:08:31.305Z,17.29
2018-07-24T02:09:37.649Z,17.28
2018-07-24T02:10:44.469Z,17.31
2018-07-24T02:11:50.551Z,17.34
2018-07-24T02:12:56.931Z,17.31
2018-07-24T02:14:03.102Z,17.23
2018-07-24T02:15:09.060Z,17.21
2018-07-24T02:16:15.496Z,17.26
2018-07-24T02:17:21.853Z,17.28
2018-07-24T02:18:28.133Z,17.40
2018-07-24T02:19:35.011Z,17.53
2018-07-24T02:20:41.359Z,17.56
2018-07-24T02:21:48.011Z,17.56
2018-07-24T02:22:54.451Z,17.48
2018-07-24T02:24:00.832Z,17.45
2018-07-24T02:25:07.447Z,17.35
2018-07-24T02:26:13.836Z,17.32
2018-07-24T02:27:20.204Z,17.23
2018-07-24T02:28:26.108Z,17.12
2018-07-24T02:29:32.469Z,17.11
2018-07-24T02:30:38.524Z,17.14
2018-07-24T02:31:44.942Z,17.20
2018-07-24T02:32:52.244Z,17.16
2018-07-24T02:33:59.519Z,17.03
2018-07-24T02:35:05.070Z,17.03
2018-07-24T02:36:11.170Z,16.99
2018-07-24T02:37:17.611Z,17.04
2018-07-24T02:38:23.681Z,17.01
2018-07-24T02:39:30.026Z,17.00
2018-07-24T02:40:35.940Z,16.98
2018-07-24T02:41:42.333Z,17.00
2018-07-24T02:42:48.689Z,17.02
2018-07-24T02:43:54.453Z,16.98
2018-07-24T02:45:01.193Z,16.96
2018-07-24T02:46:07.555Z,16.96
2018-07-24T02:47:13.996Z,16.96
2018-07-24T02:48:20.038Z,16.97
2018-07-24T02:49:26.314Z,17.02
2018-07-24T02:50:33.265Z,17.01
2018-07-24T02:51:39.641Z,16.99
2018-07-24T02:52:45.985Z,16.98
2018-07-24T02:53:53.106Z,17.01
2018-07-24T02:54:59.512Z,17.02
2018-07-24T02:56:05.148Z,17.01
2018-07-24T02:57:11.545Z,17.02
2018-07-24T02:58:17.827Z,17.03
2018-07-24T02:59:24.160Z,17.05
2018-07-24T03:00:30.469Z,17.02
2018-07-24T03:01:36.750Z,16.99
2018-07-24T03:02:43.181Z,16.96
2018-07-24T03:03:49.858Z,16.90
2018-07-24T03:04:56.242Z,16.88
2018-07-24T03:06:02.562Z,16.84
2018-07-24T03:07:08.820Z,16.85
2018-07-24T03:08:14.815Z,16.83
2018-07-24T03:09:20.857Z,16.85
2018-07-24T03:10:27.244Z,16.87
2018-07-24T03:11:33.224Z,16.88
2018-07-24T03:12:39.744Z,16.89
2018-07-24T03:13:45.525Z,16.90
2018-07-24T03:14:51.618Z,16.94
2018-07-24T03:15:57.912Z,16.95
2018-07-24T03:17:04.202Z,16.95
2018-07-24T03:18:10.652Z,16.89
2018-07-24T03:19:16.960Z,16.75
2018-07-24T03:20:23.245Z,16.74
2018-07-24T03:21:29.561Z,16.65
2018-07-24T03:22:35.531Z,16.72
2018-07-24T03:23:41.863Z,16.85
2018-07-24T03:24:48.187Z,16.88
2018-07-24T03:25:55.638Z,16.90
2018-07-24T03:27:02.413Z,16.91
2018-07-24T03:28:08.852Z,16.79
2018-07-24T03:29:15.185Z,16.81
2018-07-24T03:30:21.465Z,16.75
2018-07-24T03:31:27.732Z,16.75
2018-07-24T03:32:34.121Z,16.75
2018-07-24T03:33:45.465Z,16.75
2018-07-24T03:34:51.740Z,16.73
2018-07-24T03:35:58.074Z,16.70
2018-07-24T03:37:04.360Z,16.58
2018-07-24T03:38:10.378Z,16.39
2018-07-24T03:39:16.852Z,16.43
2018-07-24T03:40:23.280Z,16.54
2018-07-24T03:41:32.005Z,16.60
2018-07-24T03:42:38.450Z,16.60
2018-07-24T03:43:45.963Z,16.53
2018-07-24T03:44:53.275Z,16.59
2018-07-24T03:45:59.817Z,16.65
2018-07-24T03:47:06.905Z,16.74
2018-07-24T03:48:15.155Z,16.73
2018-07-24T03:49:23.657Z,16.72
2018-07-24T03:50:30.386Z,16.72
2018-07-24T03:51:36.112Z,16.64
2018-07-24T03:52:42.477Z,16.56
2018-07-24T03:53:48.579Z,16.59
2018-07-24T03:54:55.441Z,16.67
2018-07-24T03:56:01.739Z,16.63
2018-07-24T03:57:08.068Z,16.60
2018-07-24T03:58:13.963Z,16.65
2018-07-24T03:59:20.365Z,16.65
2018-07-24T04:00:26.670Z,16.64
2018-07-24T04:01:32.938Z,16.64
2018-07-24T04:02:39.562Z,16.71
2018-07-24T04:03:46.208Z,16.77
2018-07-24T04:04:52.256Z,16.82
2018-07-24T04:05:58.760Z,16.82
2018-07-24T04:07:04.848Z,16.84
2018-07-24T04:08:11.262Z,16.86
2018-07-24T04:09:17.573Z,16.82
2018-07-24T04:10:23.978Z,16.83
2018-07-24T04:11:30.992Z,16.91
2018-07-24T04:12:38.136Z,16.88
2018-07-24T04:13:45.615Z,16.83
2018-07-24T04:14:51.969Z,16.81
2018-07-24T04:15:58.280Z,16.88
2018-07-24T04:17:04.374Z,16.92
2018-07-24T04:18:11.054Z,16.93
2018-07-24T04:19:17.425Z,16.94
2018-07-24T04:20:23.824Z,16.96
2018-07-24T04:21:29.457Z,16.99
2018-07-24T04:22:35.548Z,17.06
2018-07-24T04:23:41.988Z,17.15
2018-07-24T04:24:48.254Z,17.23
2018-07-24T04:25:54.877Z,17.44
2018-07-24T04:27:01.341Z,17.49
2018-07-24T04:28:08.275Z,17.52
2018-07-24T04:29:14.975Z,17.59
2018-07-24T04:30:21.280Z,17.57
2018-07-24T04:31:27.700Z,17.56
2018-07-24T04:32:33.629Z,17.55
2018-07-24T04:33:40.014Z,17.55
2018-07-24T04:34:46.362Z,17.56
2018-07-24T04:35:53.054Z,17.47
2018-07-24T04:37:00.225Z,17.47
2018-07-24T04:38:06.481Z,17.49
2018-07-24T04:39:12.470Z,17.51
2018-07-24T04:40:18.244Z,17.55
2018-07-24T04:41:24.679Z,17.65
2018-07-24T04:42:31.146Z,17.76
2018-07-24T04:43:37.440Z,17.75
2018-07-24T04:44:43.833Z,17.75
2018-07-24T04:45:50.169Z,17.79
2018-07-24T04:46:56.588Z,17.77
2018-07-24T04:48:02.866Z,17.76
2018-07-24T04:49:09.199Z,17.76
2018-07-24T04:50:16.114Z,17.81
2018-07-24T04:51:22.498Z,17.88
2018-07-24T04:52:28.848Z,17.96
2018-07-24T04:53:35.136Z,18.01
2018-07-24T04:54:41.482Z,18.01
2018-07-24T04:55:47.903Z,18.04
2018-07-24T04:56:54.298Z,18.04
2018-07-24T04:58:00.609Z,18.07
2018-07-24T04:59:07.251Z,18.11
2018-07-24T05:00:13.662Z,18.16
2018-07-24T05:01:20.294Z,18.22
2018-07-24T05:02:26.685Z,18.25
2018-07-24T05:03:32.999Z,18.31
2018-07-24T05:04:40.208Z,18.38
2018-07-24T05:05:46.944Z,18.43
2018-07-24T05:06:53.070Z,18.51
2018-07-24T05:07:59.480Z,18.56
2018-07-24T05:09:05.097Z,18.68
2018-07-24T05:10:11.496Z,18.83
2018-07-24T05:11:17.919Z,18.92
2018-07-24T05:12:24.177Z,18.98
2018-07-24T05:13:30.546Z,19.11
2018-07-24T05:14:36.967Z,19.38
2018-07-24T05:15:43.328Z,19.53
2018-07-24T05:16:49.712Z,19.54
2018-07-24T05:17:56.288Z,19.52
2018-07-24T05:19:02.551Z,19.54
2018-07-24T05:20:09.385Z,19.52
2018-07-24T05:21:16.373Z,19.50
2018-07-24T05:22:22.634Z,19.56
2018-07-24T05:23:29.021Z,19.72
2018-07-24T05:24:35.573Z,19.72
2018-07-24T05:25:41.757Z,19.63
2018-07-24T05:26:48.212Z,19.61
2018-07-24T05:27:54.656Z,19.65
2018-07-24T05:29:00.905Z,19.69
2018-07-24T05:30:06.565Z,19.72
2018-07-24T05:31:12.954Z,19.75
2018-07-24T05:32:19.260Z,20.04
2018-07-24T05:33:25.585Z,20.21
2018-07-24T05:34:31.905Z,20.33
2018-07-24T05:35:38.260Z,20.36
2018-07-24T05:36:45.328Z,20.39
2018-07-24T05:37:52.577Z,20.39
2018-07-24T05:38:58.876Z,20.45
2018-07-24T05:40:05.207Z,20.51
2018-07-24T05:41:11.394Z,20.64
2018-07-24T05:42:17.730Z,20.71
2018-07-24T05:43:24.041Z,20.75
2018-07-24T05:44:30.416Z,20.65
2018-07-24T05:45:36.761Z,20.61
2018-07-24T05:46:43.020Z,20.64
2018-07-24T05:47:50.159Z,20.76
2018-07-24T05:48:56.591Z,20.96
2018-07-24T05:50:03.225Z,21.16
2018-07-24T05:51:09.641Z,21.15
2018-07-24T05:52:16.035Z,21.07
2018-07-24T05:53:22.344Z,21.09
2018-07-24T05:54:28.730Z,21.08
2018-07-24T05:55:35.311Z,21.06
2018-07-24T05:56:41.615Z,21.12
2018-07-24T05:57:47.885Z,21.24
2018-07-24T05:58:54.217Z,21.40
2018-07-24T06:00:00.644Z,21.56
2018-07-24T06:01:06.160Z,21.66
2018-07-24T06:02:12.469Z,21.71
2018-07-24T06:03:18.863Z,21.83
2018-07-24T06:04:25.256Z,21.85
2018-07-24T06:05:31.592Z,21.93
2018-07-24T06:06:37.859Z,21.86
2018-07-24T06:07:44.300Z,21.86
2018-07-24T06:08:50.636Z,21.93
2018-07-24T06:09:56.859Z,21.97
2018-07-24T06:11:03.415Z,22.04
2018-07-24T06:12:10.388Z,22.10
2018-07-24T06:13:17.286Z,22.20
2018-07-24T06:14:23.945Z,22.33
2018-07-24T06:15:31.167Z,22.57
2018-07-24T06:16:37.660Z,22.44
2018-07-24T06:17:44.077Z,22.17
2018-07-24T06:18:50.608Z,22.12
2018-07-24T06:19:56.944Z,22.30
2018-07-24T06:21:04.525Z,22.53
2018-07-24T06:22:10.485Z,22.73
2018-07-24T06:23:16.869Z,22.70
2018-07-24T06:24:23.171Z,22.58
2018-07-24T06:25:29.508Z,22.58
2018-07-24T06:26:35.801Z,22.64
2018-07-24T06:27:42.853Z,22.61
2018-07-24T06:28:49.852Z,22.57
2018-07-24T06:29:56.300Z,22.48
2018-07-24T06:31:02.665Z,22.52
2018-07-24T06:32:08.616Z,22.74
2018-07-24T06:33:15.055Z,22.70
2018-07-24T06:34:21.420Z,22.88
2018-07-24T06:35:27.893Z,23.14
2018-07-24T06:36:34.148Z,23.30
2018-07-24T06:37:40.588Z,23.32
2018-07-24T06:38:46.869Z,23.46
2018-07-24T06:39:53.489Z,23.62
2018-07-24T06:40:59.877Z,23.69
2018-07-24T06:42:05.881Z,23.67
2018-07-24T06:43:12.367Z,23.66
2018-07-24T06:44:19.468Z,23.76
2018-07-24T06:45:26.109Z,23.89
2018-07-24T06:46:32.393Z,23.95
2018-07-24T06:47:38.984Z,23.83
2018-07-24T06:48:45.351Z,23.67
2018-07-24T06:49:51.651Z,23.47
2018-07-24T06:50:57.986Z,23.50
2018-07-24T06:52:03.955Z,23.59
2018-07-24T06:53:10.682Z,23.78
2018-07-24T06:54:16.757Z,23.93
2018-07-24T06:55:23.200Z,24.15
2018-07-24T06:56:29.579Z,24.28
2018-07-24T06:57:36.219Z,24.23
2018-07-24T06:58:42.537Z,24.19
2018-07-24T06:59:48.886Z,24.33
2018-07-24T07:00:54.841Z,24.32
2018-07-24T07:02:01.291Z,24.28
2018-07-24T07:03:07.927Z,24.28
2018-07-24T07:04:14.229Z,24.37
2018-07-24T07:05:20.509Z,24.02
2018-07-24T07:06:26.860Z,23.92
2018-07-24T07:07:33.186Z,23.91
2018-07-24T07:08:39.663Z,23.88
2018-07-24T07:09:46.085Z,24.05
2018-07-24T07:10:52.484Z,24.38
2018-07-24T07:11:58.799Z,24.29
2018-07-24T07:13:04.762Z,24.09
2018-07-24T07:14:11.405Z,24.14
2018-07-24T07:15:17.782Z,24.21
2018-07-24T07:16:23.968Z,24.25
2018-07-24T07:17:30.237Z,24.27
2018-07-24T07:18:36.556Z,24.50
2018-07-24T07:19:44.791Z,24.73
2018-07-24T07:20:51.115Z,24.97
2018-07-24T07:21:57.448Z,25.03
2018-07-24T07:23:03.401Z,25.04
2018-07-24T07:24:09.775Z,24.98
2018-07-24T07:25:16.151Z,24.96
2018-07-24T07:26:22.571Z,25.06
2018-07-24T07:27:29.021Z,25.09
2018-07-24T07:28:35.309Z,25.17
2018-07-24T07:29:41.645Z,25.12
2018-07-24T07:30:47.965Z,25.04
2018-07-24T07:31:54.021Z,25.10
2018-07-24T07:33:00.085Z,25.17
2018-07-24T07:34:05.411Z,25.31
2018-07-24T07:35:12.551Z,25.50
2018-07-24T07:36:19.473Z,25.49
2018-07-24T07:37:25.860Z,25.29
2018-07-24T07:38:31.954Z,25.19
2018-07-24T07:39:37.937Z,25.38
2018-07-24T07:40:44.249Z,25.50
2018-07-24T07:41:50.567Z,25.54
2018-07-24T07:42:56.669Z,25.62
2018-07-24T07:44:02.771Z,25.80
2018-07-24T07:45:09.333Z,25.77
2018-07-24T07:46:15.450Z,25.89
2018-07-24T07:47:21.789Z,25.77
2018-07-24T07:48:28.145Z,25.57
2018-07-24T07:49:34.107Z,25.44
2018-07-24T07:50:40.309Z,25.39
2018-07-24T07:51:46.444Z,25.50
2018-07-24T07:52:53.324Z,25.76
2018-07-24T07:53:59.484Z,25.97
2018-07-24T07:55:05.427Z,25.91
2018-07-24T07:56:11.809Z,25.92
2018-07-24T07:57:17.933Z,26.02
2018-07-24T07:58:29.416Z,26.06
2018-07-24T07:59:35.472Z,26.29
2018-07-24T08:00:41.841Z,26.31
2018-07-24T08:01:47.977Z,26.36
2018-07-24T08:02:53.992Z,26.32
2018-07-24T08:04:00.072Z,26.03
2018-07-24T08:05:06.264Z,26.05
2018-07-24T08:06:12.780Z,25.99
2018-07-24T08:07:18.941Z,25.99
2018-07-24T08:08:25.240Z,25.95
2018-07-24T08:09:31.284Z,25.93
2018-07-24T08:10:37.639Z,25.65
2018-07-24T08:11:44.092Z,25.81
2018-07-24T08:12:50.011Z,25.89
2018-07-24T08:13:56.079Z,26.16
2018-07-24T08:15:02.069Z,26.09
2018-07-24T08:16:07.868Z,25.98
2018-07-24T08:17:14.133Z,25.92
2018-07-24T08:18:20.302Z,26.08
2018-07-24T08:19:26.302Z,26.22
2018-07-24T08:20:32.522Z,26.22
2018-07-24T08:21:38.438Z,26.18
2018-07-24T08:22:44.537Z,26.14
2018-07-24T08:23:50.524Z,26.18
2018-07-24T08:24:56.127Z,26.31
2018-07-24T08:26:02.156Z,26.14
2018-07-24T08:27:08.745Z,26.18
2018-07-24T08:28:14.971Z,26.34
2018-07-24T08:29:21.266Z,26.22
2018-07-24T08:30:27.060Z,26.05
2018-07-24T08:31:33.209Z,26.17
2018-07-24T08:32:39.219Z,26.18
2018-07-24T08:33:45.287Z,26.29
2018-07-24T08:34:51.285Z,26.55
2018-07-24T08:35:57.406Z,26.68
2018-07-24T08:37:04.442Z,26.61
2018-07-24T08:38:09.934Z,26.75
2018-07-24T08:39:15.852Z,26.67
2018-07-24T08:40:21.899Z,26.49
2018-07-24T08:41:28.523Z,26.78
2018-07-24T08:42:35.270Z,27.01
2018-07-24T08:43:41.373Z,27.12
2018-07-24T08:44:47.425Z,27.07
2018-07-24T08:45:53.705Z,27.08
2018-07-24T08:46:59.599Z,26.75
2018-07-24T08:48:06.263Z,26.92
2018-07-24T08:49:12.304Z,26.96
2018-07-24T08:50:18.188Z,26.74
2018-07-24T08:51:24.179Z,26.67
2018-07-24T08:52:30.781Z,26.86
2018-07-24T08:53:37.093Z,26.87
2018-07-24T08:54:43.143Z,27.15
2018-07-24T08:55:49.755Z,27.17
2018-07-24T08:56:55.844Z,27.00
2018-07-24T08:58:02.014Z,27.18
2018-07-24T08:59:08.106Z,27.23
2018-07-24T09:00:14.141Z,27.41
2018-07-24T09:01:20.129Z,27.47
2018-07-24T09:02:26.159Z,27.01
2018-07-24T09:03:33.356Z,27.43
2018-07-24T09:04:40.364Z,27.75
2018-07-24T09:05:46.705Z,27.44
2018-07-24T09:06:52.735Z,27.37
2018-07-24T09:07:58.944Z,27.54
2018-07-24T09:09:03.994Z,27.61
2018-07-24T09:10:10.176Z,27.40
2018-07-24T09:11:16.532Z,27.51
2018-07-24T09:12:22.663Z,27.60
2018-07-24T09:13:28.764Z,27.69
2018-07-24T09:14:34.878Z,27.76
2018-07-24T09:15:41.156Z,27.44
2018-07-24T09:16:47.493Z,27.59
2018-07-24T09:17:53.581Z,27.55
2018-07-24T09:18:59.714Z,27.09
2018-07-24T09:20:05.391Z,27.18
2018-07-24T09:21:11.725Z,27.25
2018-07-24T09:22:17.734Z,27.40
2018-07-24T09:23:23.826Z,27.35
2018-07-24T09:24:29.920Z,27.10
2018-07-24T09:25:36.496Z,27.27
2018-07-24T09:26:44.215Z,27.66
2018-07-24T09:27:50.633Z,27.58
2018-07-24T09:28:56.621Z,27.46
2018-07-24T09:30:02.721Z,27.48
2018-07-24T09:31:08.038Z,27.35
2018-07-24T09:32:14.228Z,27.52
2018-07-24T09:33:20.551Z,27.64
2018-07-24T09:34:27.110Z,27.67
2018-07-24T09:35:33.262Z,27.68
2018-07-24T09:36:39.352Z,27.80
2018-07-24T09:37:45.049Z,27.66
2018-07-24T09:38:51.180Z,27.80
2018-07-24T09:39:58.352Z,27.94
2018-07-24T09:41:05.145Z,27.93
2018-07-24T09:42:11.132Z,28.31
2018-07-24T09:43:17.167Z,28.61
2018-07-24T09:44:23.225Z,28.69
2018-07-24T09:45:29.231Z,28.82
2018-07-24T09:46:35.232Z,28.86
2018-07-24T09:47:41.260Z,28.78
2018-07-24T09:48:47.417Z,28.44
2018-07-24T09:49:53.451Z,28.27
2018-07-24T09:50:59.486Z,28.26
2018-07-24T09:52:05.288Z,28.32
2018-07-24T09:53:11.280Z,28.16
2018-07-24T09:54:17.363Z,27.93
2018-07-24T09:55:23.364Z,28.19
2018-07-24T09:56:29.601Z,28.53
2018-07-24T09:57:35.932Z,28.74
2018-07-24T09:58:42.028Z,28.24
2018-07-24T09:59:47.882Z,28.31
2018-07-24T10:00:54.350Z,28.54
2018-07-24T10:02:00.322Z,28.38
2018-07-24T10:03:06.464Z,28.61
2018-07-24T10:04:12.572Z,28.65
2018-07-24T10:05:18.614Z,28.60
2018-07-24T10:06:24.853Z,28.83
2018-07-24T10:07:30.888Z,28.92
2018-07-24T10:08:36.911Z,28.58
2018-07-24T10:09:42.888Z,28.52
2018-07-24T10:10:48.571Z,28.56
2018-07-24T10:11:54.681Z,28.54
2018-07-24T10:13:00.944Z,28.79
2018-07-24T10:14:06.739Z,28.96
2018-07-24T10:15:12.892Z,29.08
2018-07-24T10:16:19.303Z,28.86
2018-07-24T10:17:26.073Z,28.80
2018-07-24T10:18:32.070Z,28.68
2018-07-24T10:19:38.163Z,28.97
2018-07-24T10:20:44.149Z,29.12
2018-07-24T10:21:50.164Z,28.81
2018-07-24T10:22:56.064Z,28.86
2018-07-24T10:24:02.275Z,29.04
2018-07-24T10:25:08.326Z,28.80
2018-07-24T10:26:14.489Z,28.84
2018-07-24T10:27:20.524Z,28.91
2018-07-24T10:28:26.610Z,29.07
2018-07-24T10:29:32.606Z,29.22
2018-07-24T10:30:38.617Z,29.28
2018-07-24T10:31:44.752Z,29.20
2018-07-24T10:32:50.853Z,29.25
2018-07-24T10:33:56.956Z,29.04
2018-07-24T10:35:03.784Z,29.15
2018-07-24T10:36:09.865Z,29.41
2018-07-24T10:37:15.969Z,29.14
2018-07-24T10:38:22.017Z,28.85
2018-07-24T10:39:28.040Z,28.89
2018-07-24T10:40:34.084Z,28.76
2018-07-24T10:41:39.869Z,28.84
2018-07-24T10:42:46.076Z,29.05
2018-07-24T10:43:52.139Z,29.27
2018-07-24T10:44:58.210Z,29.40
2018-07-24T10:46:04.227Z,29.65
2018-07-24T10:47:10.334Z,29.71
2018-07-24T10:48:16.022Z,29.60
2018-07-24T10:49:22.586Z,29.41
2018-07-24T10:50:28.876Z,29.26
2018-07-24T10:51:34.844Z,29.22
2018-07-24T10:52:41.336Z,29.39
2018-07-24T10:53:48.120Z,29.34
2018-07-24T10:54:54.094Z,29.64
2018-07-24T10:56:00.107Z,29.93
2018-07-24T10:57:06.109Z,30.24
2018-07-24T10:58:12.158Z,30.29
2018-07-24T10:59:18.138Z,30.27
2018-07-24T11:00:23.784Z,30.30
2018-07-24T11:01:29.953Z,29.75
2018-07-24T11:02:35.616Z,29.82
2018-07-24T11:03:41.760Z,29.57
2018-07-24T11:04:47.787Z,29.34
2018-07-24T11:05:53.828Z,29.58
2018-07-24T11:06:59.840Z,29.62
2018-07-24T11:08:05.675Z,29.62
2018-07-24T11:09:12.064Z,29.25
2018-07-24T11:10:18.177Z,29.66
2018-07-24T11:11:23.848Z,30.00
2018-07-24T11:12:29.614Z,29.83
2018-07-24T11:13:35.981Z,29.56
2018-07-24T11:14:42.096Z,29.16
2018-07-24T11:15:48.116Z,29.34
2018-07-24T11:16:54.208Z,29.62
2018-07-24T11:18:00.240Z,29.78
2018-07-24T11:19:06.020Z,29.81
2018-07-24T11:20:12.223Z,29.67
2018-07-24T11:21:18.216Z,29.89
2018-07-24T11:22:24.408Z,30.25
2018-07-24T11:23:30.782Z,30.24
2018-07-24T11:24:37.068Z,30.44
2018-07-24T11:25:43.264Z,30.30
2018-07-24T11:26:49.375Z,30.15
2018-07-24T11:27:55.553Z,29.60
2018-07-24T11:29:02.153Z,29.66
2018-07-24T11:30:08.507Z,29.91
2018-07-24T11:31:14.637Z,30.15
2018-07-24T11:32:20.622Z,30.52
2018-07-24T11:33:26.815Z,30.75
2018-07-24T11:34:32.742Z,30.79
2018-07-24T11:35:38.858Z,30.89
2018-07-24T11:36:45.052Z,30.39
2018-07-24T11:37:51.091Z,30.22
2018-07-24T11:38:57.277Z,30.08
2018-07-24T11:40:03.773Z,30.28
2018-07-24T11:41:10.917Z,30.16
2018-07-24T11:42:17.117Z,30.12
2018-07-24T11:43:23.174Z,30.30
2018-07-24T11:44:29.135Z,30.62
2018-07-24T11:45:34.771Z,30.65
2018-07-24T11:46:40.837Z,30.43
2018-07-24T11:47:46.955Z,30.31
2018-07-24T11:48:53.088Z,30.65
2018-07-24T11:49:59.070Z,31.09
2018-07-24T11:51:05.080Z,31.02
2018-07-24T11:52:11.058Z,31.01
2018-07-24T11:53:17.204Z,31.05
2018-07-24T11:54:23.203Z,31.09
2018-07-24T11:55:29.195Z,31.15
2018-07-24T11:56:35.199Z,31.19
2018-07-24T11:57:41.307Z,30.95
2018-07-24T11:58:47.711Z,30.98
2018-07-24T11:59:54.024Z,30.45
2018-07-24T12:01:00.671Z,30.84
2018-07-24T12:02:06.389Z,30.70
2018-07-24T12:03:12.579Z,30.68
2018-07-24T12:04:18.584Z,30.67
2018-07-24T12:05:24.820Z,30.94
2018-07-24T12:06:31.463Z,31.21
2018-07-24T12:07:37.488Z,30.93
2018-07-24T12:08:44.324Z,30.74
2018-07-24T12:09:50.451Z,30.65
2018-07-24T12:10:56.429Z,30.71
2018-07-24T12:12:03.158Z,30.55
2018-07-24T12:13:09.292Z,30.73
2018-07-24T12:14:15.316Z,30.87
2018-07-24T12:15:21.380Z,30.75
2018-07-24T12:16:27.389Z,30.79
2018-07-24T12:17:33.206Z,30.60
2018-07-24T12:18:39.217Z,30.47
2018-07-24T12:19:45.246Z,30.37
2018-07-24T12:20:51.208Z,30.36
2018-07-24T12:21:57.296Z,30.71
2018-07-24T12:23:03.441Z,30.91
2018-07-24T12:24:09.441Z,31.11
2018-07-24T12:25:15.418Z,31.37
2018-07-24T12:26:21.420Z,31.53
2018-07-24T12:27:27.425Z,31.30
2018-07-24T12:28:33.564Z,31.23
2018-07-24T12:29:39.644Z,31.08
2018-07-24T12:30:45.663Z,31.09
2018-07-24T12:31:51.653Z,30.83
2018-07-24T12:32:57.668Z,30.77
2018-07-24T12:34:03.775Z,30.88
2018-07-24T12:35:09.897Z,30.91
2018-07-24T12:36:15.932Z,31.04
2018-07-24T12:37:22.177Z,30.74
2018-07-24T12:38:28.196Z,30.38
2018-07-24T12:39:34.242Z,30.86
2018-07-24T12:40:40.302Z,31.10
2018-07-24T12:41:46.168Z,31.17
2018-07-24T12:42:52.393Z,31.24
2018-07-24T12:43:58.554Z,31.42
2018-07-24T12:45:03.945Z,31.62
2018-07-24T12:46:10.020Z,31.84
2018-07-24T12:47:16.031Z,31.22
2018-07-24T12:48:22.230Z,31.49
2018-07-24T12:49:28.375Z,31.14
2018-07-24T12:50:33.997Z,31.61
2018-07-24T12:51:39.776Z,31.95
2018-07-24T12:52:45.774Z,32.07
2018-07-24T12:53:51.802Z,32.26
2018-07-24T12:54:57.758Z,32.38
2018-07-24T12:56:03.780Z,32.07
2018-07-24T12:57:10.221Z,32.31
2018-07-24T12:58:16.225Z,31.83
2018-07-24T12:59:22.340Z,31.61
2018-07-24T13:00:28.392Z,31.25
2018-07-24T13:01:34.393Z,31.53
2018-07-24T13:02:41.259Z,31.59
2018-07-24T13:03:47.260Z,31.54
2018-07-24T13:04:53.381Z,31.39
2018-07-24T13:05:59.499Z,31.44
2018-07-24T13:07:05.510Z,31.50
2018-07-24T13:08:11.564Z,31.54
2018-07-24T13:09:17.610Z,31.49
2018-07-24T13:10:23.359Z,31.75
2018-07-24T13:11:29.553Z,31.35
2018-07-24T13:12:35.602Z,31.29
2018-07-24T13:13:41.612Z,31.25
2018-07-24T13:14:47.621Z,31.41
2018-07-24T13:15:53.585Z,31.60
2018-07-24T13:16:59.605Z,31.85
2018-07-24T13:18:06.213Z,32.13
2018-07-24T13:19:12.895Z,31.66
2018-07-24T13:20:19.087Z,31.98
2018-07-24T13:21:24.725Z,31.78
2018-07-24T13:22:30.933Z,31.99
2018-07-24T13:23:36.960Z,32.05
2018-07-24T13:24:43.289Z,32.45
2018-07-24T13:25:49.784Z,31.85
2018-07-24T13:26:55.930Z,31.62
2018-07-24T13:28:01.911Z,31.64
2018-07-24T13:29:07.957Z,31.65
2018-07-24T13:30:14.011Z,32.15
2018-07-24T13:31:20.038Z,32.30
2018-07-24T13:32:26.024Z,32.05
2018-07-24T13:33:32.596Z,32.16
2018-07-24T13:34:38.730Z,32.39
2018-07-24T13:35:44.897Z,32.45
2018-07-24T13:36:50.963Z,32.34
2018-07-24T13:37:57.076Z,32.74
2018-07-24T13:39:02.857Z,32.89
2018-07-24T13:40:08.096Z,32.56
2018-07-24T13:41:14.129Z,32.37
2018-07-24T13:42:20.211Z,32.74
2018-07-24T13:43:26.205Z,32.77
2018-07-24T13:44:32.213Z,32.76
2018-07-24T13:45:38.151Z,32.69
2018-07-24T13:46:44.328Z,32.10
2018-07-24T13:47:50.405Z,32.39
2018-07-24T13:48:56.434Z,32.18
2018-07-24T13:50:02.555Z,32.04
2018-07-24T13:51:08.560Z,32.22
2018-07-24T13:52:14.616Z,32.62
2018-07-24T13:53:21.376Z,32.77
2018-07-24T13:54:28.171Z,32.37
2018-07-24T13:55:34.893Z,32.33
2018-07-24T13:56:40.984Z,32.56
2018-07-24T13:57:46.980Z,31.99
2018-07-24T13:58:52.741Z,32.12
2018-07-24T13:59:58.947Z,32.23
2018-07-24T14:01:04.921Z,31.82
2018-07-24T14:02:11.498Z,32.15
2018-07-24T14:03:17.579Z,32.66
2018-07-24T14:04:23.593Z,32.24
2018-07-24T14:05:29.716Z,32.08
2018-07-24T14:06:36.060Z,32.19
2018-07-24T14:07:42.079Z,32.50
2018-07-24T14:08:48.082Z,32.54
2018-07-24T14:09:54.118Z,32.47
2018-07-24T14:11:00.552Z,32.45
2018-07-24T14:12:06.154Z,32.55
2018-07-24T14:13:11.956Z,32.53